sensor_id;sensor_type;location;lat;lon;timestamp;P1;durP1;ratioP1;P2;durP2;ratioP2
75655;SDS011;64252;51.094;13.714;2022-12-20T00:02:20;44.63;;;18.15;;
75655;SDS011;64252;51.094;13.714;2022-12-20T00:04:46;44.00;;;18.08;;
75655;SDS011;64252;51.094;13.714;2022-12-20T00:07:11;35.55;;;15.45;;
75655;SDS011;64252;51.094;13.714;2022-12-20T00:09:37;39.40;;;17.23;;
75655;SDS011;64252;51.094;13.714;2022-12-20T00:12:03;41.33;;;17.20;;
75655;SDS011;64252;51.094;13.714;2022-12-20T00:14:28;44.30;;;18.48;;
75655;SDS011;64252;51.094;13.714;2022-12-20T00:16:54;38.63;;;16.38;;
75655;SDS011;64252;51.094;13.714;2022-12-20T00:19:19;45.15;;;18.48;;
75655;SDS011;64252;51.094;13.714;2022-12-20T00:21:45;42.83;;;18.05;;
75655;SDS011;64252;51.094;13.714;2022-12-20T00:24:10;46.88;;;17.98;;
75655;SDS011;64252;51.094;13.714;2022-12-20T00:26:36;40.15;;;17.48;;
75655;SDS011;64252;51.094;13.714;2022-12-20T00:29:03;43.33;;;17.55;;
75655;SDS011;64252;51.094;13.714;2022-12-20T00:31:30;45.53;;;18.38;;
75655;SDS011;64252;51.094;13.714;2022-12-20T00:33:57;39.72;;;16.98;;
75655;SDS011;64252;51.094;13.714;2022-12-20T00:36:24;43.75;;;16.95;;
75655;SDS011;64252;51.094;13.714;2022-12-20T00:38:52;44.03;;;19.25;;
75655;SDS011;64252;51.094;13.714;2022-12-20T00:41:21;42.35;;;17.45;;
75655;SDS011;64252;51.094;13.714;2022-12-20T00:43:49;44.42;;;19.75;;
75655;SDS011;64252;51.094;13.714;2022-12-20T00:46:16;39.50;;;16.90;;
75655;SDS011;64252;51.094;13.714;2022-12-20T00:48:42;39.00;;;16.20;;
75655;SDS011;64252;51.094;13.714;2022-12-20T00:51:10;41.05;;;15.95;;
75655;SDS011;64252;51.094;13.714;2022-12-20T00:53:38;42.22;;;17.83;;
75655;SDS011;64252;51.094;13.714;2022-12-20T00:56:05;39.03;;;14.82;;
75655;SDS011;64252;51.094;13.714;2022-12-20T00:58:32;46.08;;;18.35;;
75655;SDS011;64252;51.094;13.714;2022-12-20T01:00:59;51.60;;;18.88;;
75655;SDS011;64252;51.094;13.714;2022-12-20T01:03:25;44.97;;;17.55;;
75655;SDS011;64252;51.094;13.714;2022-12-20T01:05:56;41.80;;;18.33;;
75655;SDS011;64252;51.094;13.714;2022-12-20T01:08:26;41.03;;;16.17;;
75655;SDS011;64252;51.094;13.714;2022-12-20T01:11:02;48.92;;;18.80;;
75655;SDS011;64252;51.094;13.714;2022-12-20T01:13:31;42.22;;;16.73;;
75655;SDS011;64252;51.094;13.714;2022-12-20T01:16:07;49.65;;;18.63;;
75655;SDS011;64252;51.094;13.714;2022-12-20T01:18:36;44.38;;;16.65;;
75655;SDS011;64252;51.094;13.714;2022-12-20T01:21:03;37.15;;;15.07;;
75655;SDS011;64252;51.094;13.714;2022-12-20T01:23:30;40.78;;;15.02;;
75655;SDS011;64252;51.094;13.714;2022-12-20T01:25:57;40.60;;;16.95;;
75655;SDS011;64252;51.094;13.714;2022-12-20T01:28:27;38.58;;;16.50;;
75655;SDS011;64252;51.094;13.714;2022-12-20T01:30:53;40.22;;;16.60;;
75655;SDS011;64252;51.094;13.714;2022-12-20T01:33:19;37.17;;;14.35;;
75655;SDS011;64252;51.094;13.714;2022-12-20T01:36:07;37.38;;;15.80;;
75655;SDS011;64252;51.094;13.714;2022-12-20T01:38:33;35.83;;;14.70;;
75655;SDS011;64252;51.094;13.714;2022-12-20T01:40:59;40.63;;;17.45;;
75655;SDS011;64252;51.094;13.714;2022-12-20T01:43:28;41.95;;;16.88;;
75655;SDS011;64252;51.094;13.714;2022-12-20T01:46:11;39.60;;;16.00;;
75655;SDS011;64252;51.094;13.714;2022-12-20T01:48:37;40.78;;;16.73;;
75655;SDS011;64252;51.094;13.714;2022-12-20T01:51:03;37.83;;;15.43;;
75655;SDS011;64252;51.094;13.714;2022-12-20T01:53:29;40.55;;;17.55;;
75655;SDS011;64252;51.094;13.714;2022-12-20T01:55:58;43.40;;;17.30;;
75655;SDS011;64252;51.094;13.714;2022-12-20T01:58:27;40.38;;;17.10;;
75655;SDS011;64252;51.094;13.714;2022-12-20T02:00:53;40.88;;;17.15;;
75655;SDS011;64252;51.094;13.714;2022-12-20T02:03:19;38.22;;;16.92;;
75655;SDS011;64252;51.094;13.714;2022-12-20T02:05:45;38.33;;;14.80;;
75655;SDS011;64252;51.094;13.714;2022-12-20T02:08:11;40.08;;;17.58;;
75655;SDS011;64252;51.094;13.714;2022-12-20T02:16:23;41.58;;;16.75;;
75655;SDS011;64252;51.094;13.714;2022-12-20T02:18:56;45.25;;;17.60;;
75655;SDS011;64252;51.094;13.714;2022-12-20T02:21:45;41.88;;;16.40;;
75655;SDS011;64252;51.094;13.714;2022-12-20T02:30:06;41.58;;;16.55;;
75655;SDS011;64252;51.094;13.714;2022-12-20T02:32:37;40.25;;;16.10;;
75655;SDS011;64252;51.094;13.714;2022-12-20T02:35:08;39.08;;;16.15;;
75655;SDS011;64252;51.094;13.714;2022-12-20T02:40:14;41.42;;;17.98;;
75655;SDS011;64252;51.094;13.714;2022-12-20T02:42:44;38.45;;;14.43;;
75655;SDS011;64252;51.094;13.714;2022-12-20T02:45:10;45.55;;;18.25;;
75655;SDS011;64252;51.094;13.714;2022-12-20T02:50:07;44.13;;;17.05;;
75655;SDS011;64252;51.094;13.714;2022-12-20T02:52:34;44.17;;;16.20;;
75655;SDS011;64252;51.094;13.714;2022-12-20T02:55:00;35.72;;;14.05;;
75655;SDS011;64252;51.094;13.714;2022-12-20T02:57:38;40.65;;;17.00;;
75655;SDS011;64252;51.094;13.714;2022-12-20T03:00:14;38.38;;;15.88;;
75655;SDS011;64252;51.094;13.714;2022-12-20T03:02:42;39.72;;;15.77;;
75655;SDS011;64252;51.094;13.714;2022-12-20T03:05:28;43.33;;;17.63;;
75655;SDS011;64252;51.094;13.714;2022-12-20T03:07:56;39.70;;;17.65;;
75655;SDS011;64252;51.094;13.714;2022-12-20T03:10:23;42.05;;;16.70;;
75655;SDS011;64252;51.094;13.714;2022-12-20T03:12:49;43.05;;;17.77;;
75655;SDS011;64252;51.094;13.714;2022-12-20T03:15:16;33.13;;;14.07;;
75655;SDS011;64252;51.094;13.714;2022-12-20T03:17:41;41.17;;;16.27;;
75655;SDS011;64252;51.094;13.714;2022-12-20T03:20:07;41.90;;;17.55;;
75655;SDS011;64252;51.094;13.714;2022-12-20T03:22:35;37.50;;;15.52;;
75655;SDS011;64252;51.094;13.714;2022-12-20T03:25:01;43.15;;;16.83;;
75655;SDS011;64252;51.094;13.714;2022-12-20T03:27:28;37.10;;;15.85;;
75655;SDS011;64252;51.094;13.714;2022-12-20T03:29:56;38.60;;;15.70;;
75655;SDS011;64252;51.094;13.714;2022-12-20T03:32:21;39.38;;;17.17;;
75655;SDS011;64252;51.094;13.714;2022-12-20T03:34:47;39.17;;;16.58;;
75655;SDS011;64252;51.094;13.714;2022-12-20T03:37:16;41.55;;;16.73;;
75655;SDS011;64252;51.094;13.714;2022-12-20T03:39:42;36.15;;;15.80;;
75655;SDS011;64252;51.094;13.714;2022-12-20T03:42:09;36.72;;;16.15;;
75655;SDS011;64252;51.094;13.714;2022-12-20T03:44:35;39.92;;;16.67;;
75655;SDS011;64252;51.094;13.714;2022-12-20T03:47:00;40.33;;;16.88;;
75655;SDS011;64252;51.094;13.714;2022-12-20T03:49:26;34.65;;;15.38;;
75655;SDS011;64252;51.094;13.714;2022-12-20T03:51:52;38.50;;;16.75;;
75655;SDS011;64252;51.094;13.714;2022-12-20T03:54:17;36.97;;;15.57;;
75655;SDS011;64252;51.094;13.714;2022-12-20T03:57:01;36.35;;;14.55;;
75655;SDS011;64252;51.094;13.714;2022-12-20T03:59:29;38.70;;;17.50;;
75655;SDS011;64252;51.094;13.714;2022-12-20T04:01:55;31.85;;;14.60;;
75655;SDS011;64252;51.094;13.714;2022-12-20T04:04:21;38.13;;;16.10;;
75655;SDS011;64252;51.094;13.714;2022-12-20T04:06:47;38.40;;;17.15;;
75655;SDS011;64252;51.094;13.714;2022-12-20T04:09:12;38.67;;;17.10;;
75655;SDS011;64252;51.094;13.714;2022-12-20T04:11:45;33.58;;;14.50;;
75655;SDS011;64252;51.094;13.714;2022-12-20T04:14:16;36.63;;;15.77;;
75655;SDS011;64252;51.094;13.714;2022-12-20T04:16:42;39.22;;;16.45;;
75655;SDS011;64252;51.094;13.714;2022-12-20T04:19:09;36.85;;;13.65;;
75655;SDS011;64252;51.094;13.714;2022-12-20T04:21:41;40.83;;;15.85;;
75655;SDS011;64252;51.094;13.714;2022-12-20T04:24:07;39.72;;;16.35;;
75655;SDS011;64252;51.094;13.714;2022-12-20T04:26:41;37.33;;;16.17;;
75655;SDS011;64252;51.094;13.714;2022-12-20T04:29:08;33.72;;;14.30;;
75655;SDS011;64252;51.094;13.714;2022-12-20T04:31:34;38.08;;;15.27;;
75655;SDS011;64252;51.094;13.714;2022-12-20T04:34:00;37.80;;;15.68;;
75655;SDS011;64252;51.094;13.714;2022-12-20T04:36:29;36.33;;;15.35;;
75655;SDS011;64252;51.094;13.714;2022-12-20T04:38:57;37.70;;;15.77;;
75655;SDS011;64252;51.094;13.714;2022-12-20T04:41:22;40.58;;;16.35;;
75655;SDS011;64252;51.094;13.714;2022-12-20T04:43:55;34.95;;;15.30;;
75655;SDS011;64252;51.094;13.714;2022-12-20T04:46:25;34.63;;;14.07;;
75655;SDS011;64252;51.094;13.714;2022-12-20T04:48:53;40.63;;;15.98;;
75655;SDS011;64252;51.094;13.714;2022-12-20T04:51:19;40.53;;;18.17;;
75655;SDS011;64252;51.094;13.714;2022-12-20T04:53:45;35.05;;;15.15;;
75655;SDS011;64252;51.094;13.714;2022-12-20T04:56:45;38.63;;;17.45;;
75655;SDS011;64252;51.094;13.714;2022-12-20T04:59:17;38.78;;;16.85;;
75655;SDS011;64252;51.094;13.714;2022-12-20T05:01:45;40.15;;;15.35;;
75655;SDS011;64252;51.094;13.714;2022-12-20T05:04:16;37.40;;;15.43;;
75655;SDS011;64252;51.094;13.714;2022-12-20T05:06:41;30.63;;;13.13;;
75655;SDS011;64252;51.094;13.714;2022-12-20T05:09:07;37.97;;;16.35;;
75655;SDS011;64252;51.094;13.714;2022-12-20T05:11:34;38.92;;;17.67;;
75655;SDS011;64252;51.094;13.714;2022-12-20T05:14:01;40.13;;;16.60;;
75655;SDS011;64252;51.094;13.714;2022-12-20T05:16:27;37.40;;;16.77;;
75655;SDS011;64252;51.094;13.714;2022-12-20T05:18:53;38.00;;;14.50;;
75655;SDS011;64252;51.094;13.714;2022-12-20T05:21:19;35.05;;;15.27;;
75655;SDS011;64252;51.094;13.714;2022-12-20T05:24:04;42.35;;;17.05;;
75655;SDS011;64252;51.094;13.714;2022-12-20T05:27:09;39.65;;;16.02;;
75655;SDS011;64252;51.094;13.714;2022-12-20T05:29:34;42.83;;;17.25;;
75655;SDS011;64252;51.094;13.714;2022-12-20T05:32:00;40.35;;;16.33;;
75655;SDS011;64252;51.094;13.714;2022-12-20T05:34:26;41.33;;;16.63;;
75655;SDS011;64252;51.094;13.714;2022-12-20T05:36:54;38.25;;;15.75;;
75655;SDS011;64252;51.094;13.714;2022-12-20T05:39:22;39.80;;;16.80;;
75655;SDS011;64252;51.094;13.714;2022-12-20T05:41:50;34.88;;;14.75;;
75655;SDS011;64252;51.094;13.714;2022-12-20T05:44:18;38.03;;;14.93;;
75655;SDS011;64252;51.094;13.714;2022-12-20T05:46:47;35.00;;;15.48;;
75655;SDS011;64252;51.094;13.714;2022-12-20T05:49:19;35.13;;;14.40;;
75655;SDS011;64252;51.094;13.714;2022-12-20T05:51:44;40.90;;;16.15;;
75655;SDS011;64252;51.094;13.714;2022-12-20T05:54:20;39.03;;;15.88;;
75655;SDS011;64252;51.094;13.714;2022-12-20T05:56:55;37.63;;;15.23;;
75655;SDS011;64252;51.094;13.714;2022-12-20T05:59:28;37.30;;;15.85;;
75655;SDS011;64252;51.094;13.714;2022-12-20T06:01:54;35.03;;;14.07;;
75655;SDS011;64252;51.094;13.714;2022-12-20T06:04:21;35.40;;;15.85;;
75655;SDS011;64252;51.094;13.714;2022-12-20T06:06:47;39.10;;;15.80;;
75655;SDS011;64252;51.094;13.714;2022-12-20T06:09:17;37.70;;;17.23;;
75655;SDS011;64252;51.094;13.714;2022-12-20T06:11:49;34.83;;;15.73;;
75655;SDS011;64252;51.094;13.714;2022-12-20T06:14:15;36.83;;;16.05;;
75655;SDS011;64252;51.094;13.714;2022-12-20T06:16:46;33.28;;;14.90;;
75655;SDS011;64252;51.094;13.714;2022-12-20T06:19:13;36.75;;;16.33;;
75655;SDS011;64252;51.094;13.714;2022-12-20T06:21:39;33.03;;;15.02;;
75655;SDS011;64252;51.094;13.714;2022-12-20T06:24:08;38.30;;;15.93;;
75655;SDS011;64252;51.094;13.714;2022-12-20T06:26:37;32.72;;;14.73;;
75655;SDS011;64252;51.094;13.714;2022-12-20T06:29:05;33.55;;;14.25;;
75655;SDS011;64252;51.094;13.714;2022-12-20T06:31:42;34.88;;;14.70;;
75655;SDS011;64252;51.094;13.714;2022-12-20T06:34:08;31.25;;;12.90;;
75655;SDS011;64252;51.094;13.714;2022-12-20T06:36:38;29.35;;;13.07;;
75655;SDS011;64252;51.094;13.714;2022-12-20T06:39:08;33.15;;;13.48;;
75655;SDS011;64252;51.094;13.714;2022-12-20T06:41:36;34.28;;;15.10;;
75655;SDS011;64252;51.094;13.714;2022-12-20T06:44:03;40.17;;;15.90;;
75655;SDS011;64252;51.094;13.714;2022-12-20T06:46:28;34.67;;;14.63;;
75655;SDS011;64252;51.094;13.714;2022-12-20T06:48:55;34.88;;;14.98;;
75655;SDS011;64252;51.094;13.714;2022-12-20T06:51:22;32.25;;;14.65;;
75655;SDS011;64252;51.094;13.714;2022-12-20T06:53:47;33.35;;;15.48;;
75655;SDS011;64252;51.094;13.714;2022-12-20T06:56:13;30.95;;;13.95;;
75655;SDS011;64252;51.094;13.714;2022-12-20T06:58:39;31.52;;;14.30;;
75655;SDS011;64252;51.094;13.714;2022-12-20T07:01:05;33.28;;;14.68;;
75655;SDS011;64252;51.094;13.714;2022-12-20T07:03:31;32.88;;;14.40;;
75655;SDS011;64252;51.094;13.714;2022-12-20T07:05:56;32.65;;;14.30;;
75655;SDS011;64252;51.094;13.714;2022-12-20T07:08:23;35.42;;;15.00;;
75655;SDS011;64252;51.094;13.714;2022-12-20T07:10:49;35.88;;;15.45;;
75655;SDS011;64252;51.094;13.714;2022-12-20T07:13:21;36.28;;;14.65;;
75655;SDS011;64252;51.094;13.714;2022-12-20T07:15:47;35.40;;;14.98;;
75655;SDS011;64252;51.094;13.714;2022-12-20T07:18:13;34.65;;;13.50;;
75655;SDS011;64252;51.094;13.714;2022-12-20T07:20:38;30.92;;;14.48;;
75655;SDS011;64252;51.094;13.714;2022-12-20T07:23:04;29.63;;;14.20;;
75655;SDS011;64252;51.094;13.714;2022-12-20T07:25:30;33.55;;;15.27;;
75655;SDS011;64252;51.094;13.714;2022-12-20T07:27:56;32.95;;;14.68;;
75655;SDS011;64252;51.094;13.714;2022-12-20T07:30:21;34.85;;;14.75;;
75655;SDS011;64252;51.094;13.714;2022-12-20T07:32:47;36.45;;;14.50;;
75655;SDS011;64252;51.094;13.714;2022-12-20T07:35:13;32.33;;;13.55;;
75655;SDS011;64252;51.094;13.714;2022-12-20T07:37:39;38.83;;;15.68;;
75655;SDS011;64252;51.094;13.714;2022-12-20T07:40:05;32.97;;;14.38;;
75655;SDS011;64252;51.094;13.714;2022-12-20T07:42:32;36.15;;;15.32;;
75655;SDS011;64252;51.094;13.714;2022-12-20T07:44:58;34.28;;;14.75;;
75655;SDS011;64252;51.094;13.714;2022-12-20T07:47:24;38.08;;;16.42;;
75655;SDS011;64252;51.094;13.714;2022-12-20T07:49:49;36.72;;;16.45;;
75655;SDS011;64252;51.094;13.714;2022-12-20T07:52:15;34.58;;;14.27;;
75655;SDS011;64252;51.094;13.714;2022-12-20T07:54:44;37.40;;;16.00;;
75655;SDS011;64252;51.094;13.714;2022-12-20T07:57:14;34.78;;;14.45;;
75655;SDS011;64252;51.094;13.714;2022-12-20T07:59:47;38.05;;;15.73;;
75655;SDS011;64252;51.094;13.714;2022-12-20T08:02:16;37.55;;;16.10;;
75655;SDS011;64252;51.094;13.714;2022-12-20T08:04:47;34.67;;;14.93;;
75655;SDS011;64252;51.094;13.714;2022-12-20T08:07:13;36.83;;;14.80;;
75655;SDS011;64252;51.094;13.714;2022-12-20T08:09:39;35.15;;;14.63;;
75655;SDS011;64252;51.094;13.714;2022-12-20T08:12:08;38.72;;;17.40;;
75655;SDS011;64252;51.094;13.714;2022-12-20T08:14:37;38.95;;;15.73;;
75655;SDS011;64252;51.094;13.714;2022-12-20T08:17:03;38.00;;;16.48;;
75655;SDS011;64252;51.094;13.714;2022-12-20T08:19:29;39.17;;;15.40;;
75655;SDS011;64252;51.094;13.714;2022-12-20T08:21:54;41.63;;;17.77;;
75655;SDS011;64252;51.094;13.714;2022-12-20T08:24:20;37.85;;;16.63;;
75655;SDS011;64252;51.094;13.714;2022-12-20T08:26:46;37.17;;;15.23;;
75655;SDS011;64252;51.094;13.714;2022-12-20T08:29:12;36.70;;;16.70;;
75655;SDS011;64252;51.094;13.714;2022-12-20T08:31:38;34.22;;;15.70;;
75655;SDS011;64252;51.094;13.714;2022-12-20T08:34:06;38.13;;;17.52;;
75655;SDS011;64252;51.094;13.714;2022-12-20T08:36:32;37.67;;;16.13;;
75655;SDS011;64252;51.094;13.714;2022-12-20T08:39:01;39.42;;;16.05;;
75655;SDS011;64252;51.094;13.714;2022-12-20T08:41:30;38.17;;;17.20;;
75655;SDS011;64252;51.094;13.714;2022-12-20T08:43:57;41.72;;;16.52;;
75655;SDS011;64252;51.094;13.714;2022-12-20T08:46:23;37.55;;;15.85;;
75655;SDS011;64252;51.094;13.714;2022-12-20T08:48:48;39.60;;;16.88;;
75655;SDS011;64252;51.094;13.714;2022-12-20T08:51:14;45.28;;;17.60;;
75655;SDS011;64252;51.094;13.714;2022-12-20T08:53:39;45.13;;;17.80;;
75655;SDS011;64252;51.094;13.714;2022-12-20T08:56:09;43.08;;;16.98;;
75655;SDS011;64252;51.094;13.714;2022-12-20T08:58:40;40.05;;;16.15;;
75655;SDS011;64252;51.094;13.714;2022-12-20T09:01:08;38.03;;;16.27;;
75655;SDS011;64252;51.094;13.714;2022-12-20T09:03:39;42.03;;;17.95;;
75655;SDS011;64252;51.094;13.714;2022-12-20T09:06:10;42.83;;;17.83;;
75655;SDS011;64252;51.094;13.714;2022-12-20T09:08:40;40.20;;;17.15;;
75655;SDS011;64252;51.094;13.714;2022-12-20T09:11:16;38.83;;;16.27;;
75655;SDS011;64252;51.094;13.714;2022-12-20T09:13:46;43.40;;;17.50;;
75655;SDS011;64252;51.094;13.714;2022-12-20T09:16:14;33.97;;;15.00;;
75655;SDS011;64252;51.094;13.714;2022-12-20T09:18:42;41.30;;;17.38;;
75655;SDS011;64252;51.094;13.714;2022-12-20T09:21:08;36.40;;;16.38;;
75655;SDS011;64252;51.094;13.714;2022-12-20T09:23:35;39.78;;;16.85;;
75655;SDS011;64252;51.094;13.714;2022-12-20T09:26:02;38.92;;;16.58;;
75655;SDS011;64252;51.094;13.714;2022-12-20T09:28:30;40.30;;;17.33;;
75655;SDS011;64252;51.094;13.714;2022-12-20T09:31:00;34.33;;;15.05;;
75655;SDS011;64252;51.094;13.714;2022-12-20T09:35:53;36.10;;;16.88;;
75655;SDS011;64252;51.094;13.714;2022-12-20T09:38:20;39.60;;;16.77;;
75655;SDS011;64252;51.094;13.714;2022-12-20T09:40:46;36.92;;;15.50;;
75655;SDS011;64252;51.094;13.714;2022-12-20T09:43:15;36.53;;;15.02;;
75655;SDS011;64252;51.094;13.714;2022-12-20T09:45:42;37.90;;;16.23;;
75655;SDS011;64252;51.094;13.714;2022-12-20T09:48:21;41.55;;;16.88;;
75655;SDS011;64252;51.094;13.714;2022-12-20T09:58:58;39.15;;;15.00;;
75655;SDS011;64252;51.094;13.714;2022-12-20T10:01:28;38.03;;;15.07;;
75655;SDS011;64252;51.094;13.714;2022-12-20T10:03:56;33.88;;;14.45;;
75655;SDS011;64252;51.094;13.714;2022-12-20T10:06:29;40.03;;;16.25;;
75655;SDS011;64252;51.094;13.714;2022-12-20T10:09:24;39.85;;;16.33;;
75655;SDS011;64252;51.094;13.714;2022-12-20T10:12:17;40.80;;;18.95;;
75655;SDS011;64252;51.094;13.714;2022-12-20T10:20:43;39.17;;;16.48;;
75655;SDS011;64252;51.094;13.714;2022-12-20T10:26:11;42.78;;;17.90;;
75655;SDS011;64252;51.094;13.714;2022-12-20T10:28:37;37.85;;;16.63;;
75655;SDS011;64252;51.094;13.714;2022-12-20T10:31:15;40.88;;;16.95;;
75655;SDS011;64252;51.094;13.714;2022-12-20T10:33:42;41.17;;;17.48;;
75655;SDS011;64252;51.094;13.714;2022-12-20T10:38:51;37.53;;;16.77;;
75655;SDS011;64252;51.094;13.714;2022-12-20T10:41:20;42.60;;;17.02;;
75655;SDS011;64252;51.094;13.714;2022-12-20T10:46:50;39.65;;;17.15;;
75655;SDS011;64252;51.094;13.714;2022-12-20T10:54:33;41.58;;;17.40;;
75655;SDS011;64252;51.094;13.714;2022-12-20T10:59:59;40.50;;;17.90;;
75655;SDS011;64252;51.094;13.714;2022-12-20T11:05:02;39.83;;;16.25;;
75655;SDS011;64252;51.094;13.714;2022-12-20T11:07:50;36.40;;;15.57;;
75655;SDS011;64252;51.094;13.714;2022-12-20T11:10:18;41.10;;;17.58;;
75655;SDS011;64252;51.094;13.714;2022-12-20T11:12:52;40.85;;;17.13;;
75655;SDS011;64252;51.094;13.714;2022-12-20T11:15:19;36.95;;;15.93;;
75655;SDS011;64252;51.094;13.714;2022-12-20T11:17:52;40.75;;;16.42;;
75655;SDS011;64252;51.094;13.714;2022-12-20T11:23:35;41.67;;;16.38;;
75655;SDS011;64252;51.094;13.714;2022-12-20T11:26:10;38.38;;;16.27;;
75655;SDS011;64252;51.094;13.714;2022-12-20T11:31:47;43.90;;;16.85;;
75655;SDS011;64252;51.094;13.714;2022-12-20T11:37:50;38.47;;;15.98;;
75655;SDS011;64252;51.094;13.714;2022-12-20T11:40:42;36.38;;;16.73;;
75655;SDS011;64252;51.094;13.714;2022-12-20T11:43:21;38.50;;;15.43;;
75655;SDS011;64252;51.094;13.714;2022-12-20T11:46:25;41.00;;;17.48;;
75655;SDS011;64252;51.094;13.714;2022-12-20T11:51:47;40.20;;;16.40;;
75655;SDS011;64252;51.094;13.714;2022-12-20T11:57:21;37.22;;;16.30;;
75655;SDS011;64252;51.094;13.714;2022-12-20T11:59:55;44.38;;;17.50;;
75655;SDS011;64252;51.094;13.714;2022-12-20T12:05:38;38.72;;;16.20;;
75655;SDS011;64252;51.094;13.714;2022-12-20T12:08:10;41.58;;;17.02;;
75655;SDS011;64252;51.094;13.714;2022-12-20T12:10:43;41.75;;;17.33;;
75655;SDS011;64252;51.094;13.714;2022-12-20T12:18:42;40.45;;;18.40;;
75655;SDS011;64252;51.094;13.714;2022-12-20T12:21:10;40.47;;;15.70;;
75655;SDS011;64252;51.094;13.714;2022-12-20T12:29:00;45.60;;;17.77;;
75655;SDS011;64252;51.094;13.714;2022-12-20T12:31:29;41.70;;;18.35;;
75655;SDS011;64252;51.094;13.714;2022-12-20T12:46:02;39.90;;;16.90;;
75655;SDS011;64252;51.094;13.714;2022-12-20T12:48:47;44.28;;;18.83;;
75655;SDS011;64252;51.094;13.714;2022-12-20T12:51:53;43.10;;;18.25;;
75655;SDS011;64252;51.094;13.714;2022-12-20T12:54:22;41.90;;;17.48;;
75655;SDS011;64252;51.094;13.714;2022-12-20T12:56:53;45.72;;;17.83;;
75655;SDS011;64252;51.094;13.714;2022-12-20T13:09:57;46.45;;;19.27;;
75655;SDS011;64252;51.094;13.714;2022-12-20T13:20:33;44.33;;;17.55;;
75655;SDS011;64252;51.094;13.714;2022-12-20T13:25:32;43.58;;;19.25;;
75655;SDS011;64252;51.094;13.714;2022-12-20T13:30:43;44.05;;;17.80;;
75655;SDS011;64252;51.094;13.714;2022-12-20T13:36:02;41.97;;;17.92;;
75655;SDS011;64252;51.094;13.714;2022-12-20T13:38:50;40.90;;;17.42;;
75655;SDS011;64252;51.094;13.714;2022-12-20T13:43:50;41.78;;;17.02;;
75655;SDS011;64252;51.094;13.714;2022-12-20T13:46:24;44.00;;;18.52;;
75655;SDS011;64252;51.094;13.714;2022-12-20T13:49:07;46.33;;;17.63;;
75655;SDS011;64252;51.094;13.714;2022-12-20T13:51:44;41.70;;;18.00;;
75655;SDS011;64252;51.094;13.714;2022-12-20T13:54:17;44.72;;;19.00;;
75655;SDS011;64252;51.094;13.714;2022-12-20T13:56:45;41.10;;;18.70;;
75655;SDS011;64252;51.094;13.714;2022-12-20T13:59:34;48.10;;;17.25;;
75655;SDS011;64252;51.094;13.714;2022-12-20T14:02:00;48.55;;;17.92;;
75655;SDS011;64252;51.094;13.714;2022-12-20T14:04:39;45.53;;;20.10;;
75655;SDS011;64252;51.094;13.714;2022-12-20T14:07:07;43.30;;;16.98;;
75655;SDS011;64252;51.094;13.714;2022-12-20T14:09:37;42.28;;;16.95;;
75655;SDS011;64252;51.094;13.714;2022-12-20T14:14:30;48.60;;;19.48;;
75655;SDS011;64252;51.094;13.714;2022-12-20T14:20:22;46.30;;;19.83;;
75655;SDS011;64252;51.094;13.714;2022-12-20T14:23:01;45.13;;;17.55;;
75655;SDS011;64252;51.094;13.714;2022-12-20T14:25:41;43.10;;;17.23;;
75655;SDS011;64252;51.094;13.714;2022-12-20T14:28:15;45.28;;;17.25;;
75655;SDS011;64252;51.094;13.714;2022-12-20T14:30:42;45.00;;;18.77;;
75655;SDS011;64252;51.094;13.714;2022-12-20T14:33:28;44.05;;;18.00;;
75655;SDS011;64252;51.094;13.714;2022-12-20T14:36:06;46.08;;;19.55;;
75655;SDS011;64252;51.094;13.714;2022-12-20T14:38:34;39.63;;;17.02;;
75655;SDS011;64252;51.094;13.714;2022-12-20T14:41:00;40.63;;;17.02;;
75655;SDS011;64252;51.094;13.714;2022-12-20T14:43:27;47.10;;;19.42;;
75655;SDS011;64252;51.094;13.714;2022-12-20T14:49:06;45.53;;;19.08;;
75655;SDS011;64252;51.094;13.714;2022-12-20T14:51:37;35.75;;;14.32;;
75655;SDS011;64252;51.094;13.714;2022-12-20T14:54:03;44.25;;;17.05;;
75655;SDS011;64252;51.094;13.714;2022-12-20T14:56:28;43.55;;;17.23;;
75655;SDS011;64252;51.094;13.714;2022-12-20T14:59:14;42.03;;;16.75;;
75655;SDS011;64252;51.094;13.714;2022-12-20T15:01:41;40.78;;;17.05;;
75655;SDS011;64252;51.094;13.714;2022-12-20T15:07:29;42.28;;;16.85;;
75655;SDS011;64252;51.094;13.714;2022-12-20T15:09:55;39.60;;;17.10;;
75655;SDS011;64252;51.094;13.714;2022-12-20T15:12:21;44.80;;;17.60;;
75655;SDS011;64252;51.094;13.714;2022-12-20T15:14:50;44.75;;;16.27;;
75655;SDS011;64252;51.094;13.714;2022-12-20T15:17:20;45.63;;;18.98;;
75655;SDS011;64252;51.094;13.714;2022-12-20T15:19:47;42.40;;;15.85;;
75655;SDS011;64252;51.094;13.714;2022-12-20T15:22:16;42.25;;;17.13;;
75655;SDS011;64252;51.094;13.714;2022-12-20T15:24:47;42.90;;;18.15;;
75655;SDS011;64252;51.094;13.714;2022-12-20T15:27:13;40.88;;;17.40;;
75655;SDS011;64252;51.094;13.714;2022-12-20T15:29:40;40.15;;;16.30;;
75655;SDS011;64252;51.094;13.714;2022-12-20T15:32:14;43.33;;;17.73;;
75655;SDS011;64252;51.094;13.714;2022-12-20T15:34:48;42.00;;;18.00;;
75655;SDS011;64252;51.094;13.714;2022-12-20T15:37:21;42.33;;;16.83;;
75655;SDS011;64252;51.094;13.714;2022-12-20T15:39:47;39.70;;;16.13;;
75655;SDS011;64252;51.094;13.714;2022-12-20T15:42:14;47.80;;;19.23;;
75655;SDS011;64252;51.094;13.714;2022-12-20T15:44:42;43.78;;;17.15;;
75655;SDS011;64252;51.094;13.714;2022-12-20T15:47:11;42.88;;;16.92;;
75655;SDS011;64252;51.094;13.714;2022-12-20T15:49:37;47.25;;;18.42;;
75655;SDS011;64252;51.094;13.714;2022-12-20T15:52:05;44.85;;;16.90;;
75655;SDS011;64252;51.094;13.714;2022-12-20T15:54:32;44.65;;;18.58;;
75655;SDS011;64252;51.094;13.714;2022-12-20T15:57:03;48.00;;;18.55;;
75655;SDS011;64252;51.094;13.714;2022-12-20T15:59:33;46.22;;;18.95;;
75655;SDS011;64252;51.094;13.714;2022-12-20T16:01:59;47.05;;;17.08;;
75655;SDS011;64252;51.094;13.714;2022-12-20T16:04:24;46.38;;;17.77;;
75655;SDS011;64252;51.094;13.714;2022-12-20T16:06:52;44.35;;;16.58;;
75655;SDS011;64252;51.094;13.714;2022-12-20T16:09:19;46.10;;;16.58;;
75655;SDS011;64252;51.094;13.714;2022-12-20T16:11:45;43.78;;;18.77;;
75655;SDS011;64252;51.094;13.714;2022-12-20T16:14:15;50.40;;;20.00;;
75655;SDS011;64252;51.094;13.714;2022-12-20T16:16:43;42.92;;;17.95;;
75655;SDS011;64252;51.094;13.714;2022-12-20T16:19:09;43.90;;;16.40;;
75655;SDS011;64252;51.094;13.714;2022-12-20T16:21:45;42.42;;;18.98;;
75655;SDS011;64252;51.094;13.714;2022-12-20T16:24:13;44.75;;;18.73;;
75655;SDS011;64252;51.094;13.714;2022-12-20T16:26:41;43.17;;;17.25;;
75655;SDS011;64252;51.094;13.714;2022-12-20T16:29:06;45.53;;;18.55;;
75655;SDS011;64252;51.094;13.714;2022-12-20T16:31:36;44.90;;;16.98;;
75655;SDS011;64252;51.094;13.714;2022-12-20T16:34:04;40.95;;;17.33;;
75655;SDS011;64252;51.094;13.714;2022-12-20T16:36:34;43.00;;;17.15;;
75655;SDS011;64252;51.094;13.714;2022-12-20T16:38:59;42.78;;;16.25;;